createdAt,value
2023-03-01T00:01:12.966Z,141.73
2023-03-01T00:03:40.269Z,130.50
2023-03-01T00:06:07.896Z,125.53
2023-03-01T00:08:35.547Z,121.33
2023-03-01T00:11:42.694Z,118.53
2023-03-01T00:14:09.859Z,112.60
2023-03-01T00:16:42.421Z,123.00
2023-03-01T00:19:11.476Z,123.10
2023-03-01T00:21:38.720Z,138.93
2023-03-01T00:24:06.044Z,131.97
2023-03-01T00:26:33.424Z,134.97
2023-03-01T00:29:00.858Z,132.17
2023-03-01T00:31:30.263Z,127.07
2023-03-01T00:33:58.583Z,115.30
2023-03-01T00:36:27.125Z,111.37
2023-03-01T00:38:54.292Z,110.33
2023-03-01T00:41:23.650Z,107.43
2023-03-01T00:43:51.560Z,106.20
2023-03-01T00:46:20.144Z,113.50
2023-03-01T00:48:47.464Z,122.47
2023-03-01T00:51:16.063Z,111.67
2023-03-01T00:53:43.898Z,107.80
2023-03-01T00:56:12.055Z,101.77
2023-03-01T00:58:39.488Z,118.60
2023-03-01T01:01:20.237Z,114.40
2023-03-01T01:03:48.872Z,100.40
2023-03-01T01:06:17.357Z,92.77
2023-03-01T01:08:44.554Z,91.07
2023-03-01T01:11:12.767Z,88.67
2023-03-01T01:13:40.208Z,86.77
2023-03-01T01:16:07.624Z,84.43
2023-03-01T01:18:34.892Z,84.27
2023-03-01T01:21:06.072Z,83.30
2023-03-01T01:23:33.399Z,85.00
2023-03-01T01:26:05.129Z,83.83
2023-03-01T01:28:32.420Z,84.83
2023-03-01T01:30:59.750Z,81.90
2023-03-01T01:33:27.889Z,78.63
2023-03-01T01:35:55.332Z,81.20
2023-03-01T01:38:22.574Z,75.40
2023-03-01T01:40:51.058Z,78.30
2023-03-01T01:43:25.998Z,74.57
2023-03-01T01:45:56.705Z,71.03
2023-03-01T01:48:26.016Z,73.03
2023-03-01T01:50:59.104Z,74.80
2023-03-01T01:53:26.895Z,76.80
2023-03-01T01:55:58.051Z,73.00
2023-03-01T01:58:26.038Z,74.50
2023-03-01T02:00:53.253Z,70.57
2023-03-01T02:03:23.081Z,69.47
2023-03-01T02:06:05.508Z,70.10
2023-03-01T02:08:35.211Z,68.00
2023-03-01T02:11:05.165Z,70.77
2023-03-01T02:13:33.119Z,69.67
2023-03-01T02:16:01.541Z,70.80
2023-03-01T02:18:29.092Z,65.60
2023-03-01T02:21:15.621Z,65.27
2023-03-01T02:23:43.022Z,66.90
2023-03-01T02:26:14.843Z,67.80
2023-03-01T02:28:42.846Z,69.30
2023-03-01T02:31:29.644Z,70.03
2023-03-01T02:33:57.736Z,73.53
2023-03-01T02:36:26.620Z,78.97
2023-03-01T02:38:55.239Z,81.07
2023-03-01T02:41:23.637Z,81.43
2023-03-01T02:43:51.070Z,92.63
2023-03-01T02:46:20.199Z,92.07
2023-03-01T02:48:51.696Z,92.67
2023-03-01T02:51:33.799Z,88.23
2023-03-01T02:54:13.932Z,87.87
2023-03-01T02:56:41.183Z,91.57
2023-03-01T02:59:08.496Z,90.30
2023-03-01T03:01:38.747Z,86.30
2023-03-01T03:04:10.911Z,86.40
2023-03-01T03:06:38.269Z,83.13
2023-03-01T03:09:06.148Z,80.00
2023-03-01T03:11:33.409Z,77.67
2023-03-01T03:14:00.754Z,77.87
2023-03-01T03:16:27.971Z,82.27
2023-03-01T03:18:55.198Z,82.70
2023-03-01T03:21:22.594Z,79.23
2023-03-01T03:23:49.791Z,77.70
2023-03-01T03:26:17.040Z,78.23
2023-03-01T03:28:44.243Z,81.63
2023-03-01T03:31:11.410Z,84.67
2023-03-01T03:33:38.902Z,89.80
2023-03-01T03:36:06.343Z,93.60
2023-03-01T03:38:33.582Z,91.77
2023-03-01T03:41:05.191Z,86.07
2023-03-01T03:43:33.714Z,79.10
2023-03-01T03:46:01.038Z,76.57
2023-03-01T03:48:28.742Z,77.40
2023-03-01T03:50:57.298Z,73.57
2023-03-01T03:53:26.217Z,75.23
2023-03-01T03:55:53.849Z,74.60
2023-03-01T03:58:22.028Z,68.63
2023-03-01T04:00:50.184Z,68.63
2023-03-01T04:03:19.728Z,69.00
2023-03-01T04:05:47.154Z,70.63
2023-03-01T04:08:14.551Z,70.60
2023-03-01T04:10:42.810Z,67.13
2023-03-01T04:13:12.127Z,63.27
2023-03-01T04:15:39.788Z,64.97
2023-03-01T04:18:07.661Z,66.73
2023-03-01T04:20:35.980Z,63.83
2023-03-01T04:23:21.558Z,61.40
2023-03-01T04:25:55.151Z,60.40
2023-03-01T04:28:26.518Z,60.30
2023-03-01T04:30:54.304Z,59.33
2023-03-01T04:33:21.997Z,62.00
2023-03-01T04:35:52.474Z,63.20
2023-03-01T04:38:20.312Z,60.43
2023-03-01T04:40:47.548Z,63.50
2023-03-01T04:43:18.696Z,61.50
2023-03-01T04:45:46.107Z,62.40
2023-03-01T04:48:13.306Z,59.27
2023-03-01T04:50:40.480Z,58.20
2023-03-01T04:53:07.701Z,61.73
2023-03-01T04:55:35.525Z,61.50
2023-03-01T04:58:03.087Z,58.23
2023-03-01T05:00:30.432Z,65.93
2023-03-01T05:02:58.945Z,65.37
2023-03-01T05:05:33.163Z,57.50
2023-03-01T05:08:01.693Z,54.60
2023-03-01T05:10:30.230Z,56.83
2023-03-01T05:13:01.208Z,69.40
2023-03-01T05:15:29.004Z,65.53
2023-03-01T05:17:56.917Z,63.43
2023-03-01T05:20:24.111Z,59.40
2023-03-01T05:22:56.449Z,65.17
2023-03-01T05:25:23.644Z,62.17
2023-03-01T05:27:50.949Z,63.97
2023-03-01T05:30:18.637Z,64.30
2023-03-01T05:32:47.642Z,62.73
2023-03-01T05:35:15.836Z,61.50
2023-03-01T05:37:47.432Z,62.33
2023-03-01T05:40:17.255Z,59.47
2023-03-01T05:42:45.307Z,59.00
2023-03-01T05:45:13.420Z,57.00
2023-03-01T05:47:44.433Z,60.33
2023-03-01T05:50:20.067Z,59.27
2023-03-01T05:52:51.667Z,57.03
2023-03-01T05:55:20.171Z,56.83
2023-03-01T05:57:47.725Z,57.00
2023-03-01T06:00:16.693Z,59.30
2023-03-01T06:02:43.884Z,57.73
2023-03-01T06:05:12.434Z,60.03
2023-03-01T06:07:39.738Z,61.40
2023-03-01T06:10:07.689Z,63.20
2023-03-01T06:12:35.533Z,72.67
2023-03-01T06:15:03.288Z,97.37
2023-03-01T06:17:31.241Z,97.07
2023-03-01T06:19:58.713Z,97.70
2023-03-01T06:22:26.261Z,107.13
2023-03-01T06:24:53.593Z,117.20
2023-03-01T06:27:20.869Z,136.23
2023-03-01T06:29:48.023Z,196.67
2023-03-01T06:32:15.321Z,209.27
2023-03-01T06:34:42.617Z,199.93
2023-03-01T06:37:09.809Z,164.00
2023-03-01T06:39:37.061Z,145.23
2023-03-01T06:42:04.426Z,136.63
2023-03-01T06:44:32.068Z,134.70
2023-03-01T06:46:59.944Z,122.37
2023-03-01T06:49:27.248Z,124.93
2023-03-01T06:51:54.673Z,118.17
2023-03-01T06:54:23.354Z,105.40
2023-03-01T06:56:51.173Z,98.43
2023-03-01T06:59:19.129Z,85.27
2023-03-01T07:01:46.474Z,86.37
2023-03-01T07:04:14.567Z,77.37
2023-03-01T07:06:41.839Z,67.10
2023-03-01T07:09:09.043Z,57.70
2023-03-01T07:11:36.283Z,49.33
2023-03-01T07:14:03.584Z,43.83
2023-03-01T07:16:31.026Z,40.57
2023-03-01T07:18:59.775Z,38.13
2023-03-01T07:21:27.144Z,36.83
2023-03-01T07:23:54.364Z,34.43
2023-03-01T07:26:21.625Z,33.23
2023-03-01T07:28:48.912Z,37.00
2023-03-01T07:31:16.117Z,45.87
2023-03-01T07:33:43.323Z,41.47
2023-03-01T07:36:10.916Z,43.67
2023-03-01T07:38:38.094Z,40.07
2023-03-01T07:41:06.698Z,41.30
2023-03-01T07:43:34.189Z,38.07
2023-03-01T07:46:02.212Z,43.20
2023-03-01T07:48:30.115Z,30.20
2023-03-01T07:51:00.276Z,24.57
2023-03-01T07:53:27.513Z,21.87
2023-03-01T07:56:04.674Z,21.47
2023-03-01T07:58:31.859Z,21.30
2023-03-01T08:01:02.931Z,18.93
2023-03-01T08:03:30.384Z,19.93
2023-03-01T08:05:57.648Z,18.83
2023-03-01T08:08:24.848Z,17.80
2023-03-01T08:10:52.044Z,18.47
2023-03-01T08:13:23.550Z,16.00
2023-03-01T08:15:51.253Z,17.00
2023-03-01T08:18:19.437Z,16.60
2023-03-01T08:20:47.020Z,16.70
2023-03-01T08:23:14.250Z,16.17
2023-03-01T08:25:41.812Z,16.13
2023-03-01T08:28:09.145Z,15.30
2023-03-01T08:30:36.468Z,14.57
2023-03-01T08:33:03.886Z,16.10
2023-03-01T08:35:31.145Z,16.87
2023-03-01T08:37:58.400Z,14.70
2023-03-01T08:40:25.608Z,13.63
2023-03-01T08:42:52.853Z,12.37
2023-03-01T08:45:20.176Z,12.40
2023-03-01T08:47:47.462Z,10.10
2023-03-01T08:50:14.747Z,10.50
2023-03-01T08:52:42.022Z,11.40
2023-03-01T08:55:09.782Z,10.47
2023-03-01T08:57:37.360Z,9.63
2023-03-01T09:00:08.990Z,10.43
2023-03-01T09:02:36.431Z,11.00
2023-03-01T09:05:03.876Z,11.17
2023-03-01T09:07:31.088Z,10.97
2023-03-01T09:09:58.273Z,11.57
2023-03-01T09:12:26.050Z,10.93
2023-03-01T09:14:53.220Z,14.57
2023-03-01T09:17:22.550Z,10.00
2023-03-01T09:19:50.748Z,10.33
2023-03-01T09:22:17.999Z,10.73
2023-03-01T09:24:45.702Z,13.70
2023-03-01T09:27:13.887Z,9.80
2023-03-01T09:29:41.338Z,9.33
2023-03-01T09:32:09.487Z,7.43
2023-03-01T09:34:56.659Z,8.47
2023-03-01T09:37:24.496Z,9.37
2023-03-01T09:39:51.806Z,9.53
2023-03-01T09:42:19.048Z,9.93
2023-03-01T09:44:59.521Z,10.33
2023-03-01T09:47:28.540Z,9.50
2023-03-01T09:50:00.837Z,11.13
2023-03-01T09:52:44.914Z,11.67
2023-03-01T09:55:14.362Z,10.33
2023-03-01T09:58:00.284Z,9.37
2023-03-01T10:00:30.518Z,9.13
2023-03-01T10:03:01.016Z,8.97
2023-03-01T10:05:40.561Z,9.77
2023-03-01T10:08:10.471Z,9.67
2023-03-01T10:10:41.499Z,9.70
2023-03-01T10:13:18.002Z,10.27
2023-03-01T10:15:47.215Z,9.50
2023-03-01T10:18:18.870Z,10.43
2023-03-01T10:20:54.245Z,9.40
2023-03-01T10:23:21.641Z,9.40
2023-03-01T10:25:54.842Z,8.70
2023-03-01T10:28:26.786Z,8.97
2023-03-01T10:30:54.785Z,8.97
2023-03-01T10:33:26.562Z,9.53
2023-03-01T10:35:54.012Z,9.27
2023-03-01T10:38:21.822Z,9.87
2023-03-01T10:40:55.071Z,8.97
2023-03-01T10:43:23.532Z,9.47
2023-03-01T10:45:51.109Z,9.30
2023-03-01T10:48:22.219Z,8.57
2023-03-01T10:51:27.002Z,9.03
2023-03-01T10:53:54.205Z,7.50
2023-03-01T10:56:21.940Z,8.53
2023-03-01T10:58:59.774Z,7.63
2023-03-01T11:01:36.044Z,7.97
2023-03-01T11:04:13.770Z,7.93
2023-03-01T11:06:42.538Z,8.20
2023-03-01T11:09:28.391Z,7.00
2023-03-01T11:11:56.845Z,7.33
2023-03-01T11:14:28.417Z,8.00
2023-03-01T11:17:06.545Z,8.13
2023-03-01T11:19:34.508Z,8.33
2023-03-01T11:22:04.531Z,8.47
2023-03-01T11:24:43.745Z,8.37
2023-03-01T11:27:18.306Z,8.20
2023-03-01T11:29:49.335Z,7.60
2023-03-01T11:32:17.208Z,8.70
2023-03-01T11:34:44.637Z,7.47
2023-03-01T11:37:30.640Z,7.70
2023-03-01T11:40:01.357Z,7.80
2023-03-01T11:42:47.203Z,7.33
2023-03-01T11:45:14.647Z,6.73
2023-03-01T11:47:42.007Z,7.40
2023-03-01T11:50:15.049Z,7.67
2023-03-01T11:53:08.344Z,6.87
2023-03-01T11:55:50.767Z,7.97
2023-03-01T11:58:36.483Z,7.17
2023-03-01T12:01:24.204Z,7.50
2023-03-01T12:03:54.403Z,8.17
2023-03-01T12:06:37.989Z,7.73
2023-03-01T12:09:26.308Z,6.97
2023-03-01T12:11:59.704Z,6.93
2023-03-01T12:14:43.008Z,7.30
2023-03-01T12:17:10.271Z,7.60
2023-03-01T12:19:40.592Z,7.10
2023-03-01T12:22:26.501Z,7.00
2023-03-01T12:24:59.867Z,7.30
2023-03-01T12:27:35.981Z,6.27
2023-03-01T12:30:22.017Z,7.30
2023-03-01T12:32:59.607Z,6.80
2023-03-01T12:35:30.223Z,6.97
2023-03-01T12:37:57.679Z,6.63
2023-03-01T12:40:35.439Z,6.73
2023-03-01T12:43:23.007Z,8.00
2023-03-01T12:45:53.535Z,7.00
2023-03-01T12:48:30.011Z,6.90
2023-03-01T12:51:00.330Z,7.70
2023-03-01T12:53:29.867Z,6.63
2023-03-01T12:56:00.971Z,7.30
2023-03-01T12:58:43.565Z,8.30
2023-03-01T13:01:27.963Z,7.20
2023-03-01T13:03:55.213Z,6.87
2023-03-01T13:06:27.552Z,6.97
2023-03-01T13:09:01.429Z,6.23
2023-03-01T13:11:28.961Z,7.10
2023-03-01T13:14:19.234Z,6.53
2023-03-01T13:16:50.047Z,6.10
2023-03-01T13:19:19.019Z,6.47
2023-03-01T13:21:47.118Z,7.07
2023-03-01T13:24:26.612Z,6.00
2023-03-01T13:27:12.010Z,6.10
2023-03-01T13:29:53.721Z,5.43
2023-03-01T13:32:43.081Z,4.80
2023-03-01T13:35:20.086Z,5.30
2023-03-01T13:37:47.823Z,5.37
2023-03-01T13:40:19.678Z,4.60
2023-03-01T13:42:59.400Z,4.60
2023-03-01T13:45:40.328Z,3.97
2023-03-01T13:48:17.045Z,4.70
2023-03-01T13:50:49.390Z,4.47
2023-03-01T13:53:19.563Z,4.17
2023-03-01T13:55:48.125Z,4.10
2023-03-01T13:58:34.758Z,4.33
2023-03-01T14:01:03.518Z,3.90
2023-03-01T14:03:31.524Z,4.57
2023-03-01T14:06:13.295Z,4.23
2023-03-01T14:08:42.089Z,4.53
2023-03-01T14:11:20.439Z,5.00
2023-03-01T14:13:50.646Z,4.70
2023-03-01T14:16:27.190Z,3.97
2023-03-01T14:18:54.445Z,4.80
2023-03-01T14:21:23.630Z,5.20
2023-03-01T14:23:50.938Z,4.67
2023-03-01T14:26:22.636Z,4.67
2023-03-01T14:28:50.248Z,4.57
2023-03-01T14:31:36.245Z,5.20
2023-03-01T14:34:06.056Z,4.20
2023-03-01T14:36:34.796Z,4.57
2023-03-01T14:39:06.000Z,4.63
2023-03-01T14:41:37.327Z,4.60
2023-03-01T14:44:16.010Z,4.30
2023-03-01T14:46:44.860Z,4.53
2023-03-01T14:49:14.631Z,4.70
2023-03-01T14:51:43.081Z,4.57
2023-03-01T14:54:22.352Z,4.90
2023-03-01T14:56:49.840Z,4.67
2023-03-01T14:59:17.027Z,4.90
2023-03-01T15:01:45.049Z,4.73
2023-03-01T15:04:13.963Z,5.00
2023-03-01T15:06:41.810Z,5.40
2023-03-01T15:09:12.845Z,5.37
2023-03-01T15:11:44.464Z,5.80
2023-03-01T15:14:28.220Z,4.90
2023-03-01T15:16:55.994Z,5.10
2023-03-01T15:19:25.486Z,4.97
2023-03-01T15:21:52.785Z,5.40
2023-03-01T15:24:28.683Z,4.80
2023-03-01T15:27:20.058Z,5.27
2023-03-01T15:29:53.505Z,5.90
2023-03-01T15:32:30.156Z,5.77
2023-03-01T15:34:58.227Z,5.47
2023-03-01T15:37:44.404Z,6.73
2023-03-01T15:40:21.789Z,6.40
2023-03-01T15:42:49.224Z,7.37
2023-03-01T15:45:21.854Z,5.67
2023-03-01T15:47:51.174Z,4.87
2023-03-01T15:50:22.422Z,5.33
2023-03-01T15:52:50.070Z,6.40
2023-03-01T15:55:22.194Z,6.23
2023-03-01T15:57:50.196Z,6.10
2023-03-01T16:00:18.676Z,5.70
2023-03-01T16:02:46.009Z,6.27
2023-03-01T16:05:21.585Z,6.17
2023-03-01T16:07:48.927Z,7.43
2023-03-01T16:10:16.234Z,12.43
2023-03-01T16:12:44.056Z,16.10
2023-03-01T16:15:38.962Z,19.90
2023-03-01T16:18:07.256Z,17.33
2023-03-01T16:20:34.568Z,14.40
2023-03-01T16:23:05.936Z,11.00
2023-03-01T16:25:33.452Z,11.13
2023-03-01T16:28:05.228Z,9.93
2023-03-01T16:30:32.525Z,9.70
2023-03-01T16:32:59.758Z,10.97
2023-03-01T16:35:27.342Z,13.93
2023-03-01T16:37:55.010Z,22.97
2023-03-01T16:40:22.245Z,25.93
2023-03-01T16:42:52.627Z,23.30
2023-03-01T16:45:25.171Z,23.13
2023-03-01T16:47:56.033Z,23.73
2023-03-01T16:50:23.718Z,22.80
2023-03-01T16:52:50.948Z,30.97
2023-03-01T16:55:18.424Z,36.13
2023-03-01T16:57:45.800Z,33.67
2023-03-01T17:00:14.224Z,29.50
2023-03-01T17:02:42.609Z,35.07
2023-03-01T17:05:11.087Z,32.47
2023-03-01T17:07:38.516Z,33.40
2023-03-01T17:10:06.816Z,36.73
2023-03-01T17:12:34.901Z,46.03
2023-03-01T17:15:02.178Z,56.93
2023-03-01T17:17:29.426Z,85.97
2023-03-01T17:19:57.312Z,86.00
2023-03-01T17:22:24.580Z,72.97
2023-03-01T17:24:51.807Z,89.63
2023-03-01T17:27:19.523Z,101.13
2023-03-01T17:29:46.744Z,100.80
2023-03-01T17:32:14.467Z,136.13
2023-03-01T17:34:41.779Z,126.10
2023-03-01T17:37:09.004Z,130.40
2023-03-01T17:39:36.654Z,144.73
2023-03-01T17:42:05.669Z,151.87
2023-03-01T17:44:34.562Z,131.63
2023-03-01T17:47:05.046Z,123.10
2023-03-01T17:49:32.620Z,120.57
2023-03-01T17:52:00.085Z,129.70
2023-03-01T17:54:27.430Z,149.13
2023-03-01T17:56:56.151Z,175.40
2023-03-01T17:59:23.466Z,189.73
2023-03-01T18:01:50.981Z,162.63
2023-03-01T18:04:18.881Z,158.30
2023-03-01T18:06:46.068Z,152.50
2023-03-01T18:09:13.397Z,144.70
2023-03-01T18:11:42.099Z,140.50
2023-03-01T18:14:09.321Z,146.40
2023-03-01T18:16:36.593Z,155.33
2023-03-01T18:19:03.838Z,158.47
2023-03-01T18:21:31.348Z,155.43
2023-03-01T18:24:02.116Z,150.70
2023-03-01T18:26:30.013Z,151.80
2023-03-01T18:29:01.417Z,145.33
2023-03-01T18:31:32.595Z,139.37
2023-03-01T18:34:01.137Z,129.37
2023-03-01T18:36:30.634Z,127.83
2023-03-01T18:38:58.218Z,128.20
2023-03-01T18:41:26.507Z,123.63
2023-03-01T18:43:54.469Z,155.03
2023-03-01T18:46:22.030Z,215.60
2023-03-01T18:48:49.658Z,256.57
2023-03-01T18:51:18.402Z,266.47
2023-03-01T18:53:45.750Z,241.60
2023-03-01T18:56:13.384Z,219.50
2023-03-01T18:58:42.510Z,188.10
2023-03-01T19:01:16.729Z,156.53
2023-03-01T19:03:44.273Z,145.63
2023-03-01T19:06:12.012Z,140.67
2023-03-01T19:08:40.815Z,134.63
2023-03-01T19:11:09.446Z,136.03
2023-03-01T19:13:38.531Z,127.23
2023-03-01T19:16:10.417Z,130.10
2023-03-01T19:18:40.031Z,134.63
2023-03-01T19:21:07.956Z,131.43
2023-03-01T19:23:35.772Z,133.83
2023-03-01T19:26:03.982Z,138.03
2023-03-01T19:28:31.332Z,159.13
2023-03-01T19:31:06.554Z,161.67
2023-03-01T19:33:34.855Z,164.00
2023-03-01T19:36:02.460Z,171.10
2023-03-01T19:38:30.142Z,173.00
2023-03-01T19:40:57.806Z,173.23
2023-03-01T19:43:25.894Z,197.83
2023-03-01T19:45:56.262Z,206.77
2023-03-01T19:48:23.948Z,183.33
2023-03-01T19:50:52.624Z,196.10
2023-03-01T19:53:20.286Z,204.43
2023-03-01T19:55:47.494Z,224.67
2023-03-01T19:58:14.715Z,243.57
2023-03-01T20:00:45.466Z,245.50
2023-03-01T20:03:12.830Z,264.57
2023-03-01T20:05:40.359Z,263.40
2023-03-01T20:08:09.517Z,255.50
2023-03-01T20:10:36.764Z,260.07
2023-03-01T20:13:04.045Z,249.67
2023-03-01T20:15:31.422Z,248.83
2023-03-01T20:17:58.727Z,251.83
2023-03-01T20:20:25.938Z,231.77
2023-03-01T20:22:53.158Z,211.20
2023-03-01T20:25:20.430Z,198.70
2023-03-01T20:27:48.154Z,188.90
2023-03-01T20:30:16.241Z,178.10
2023-03-01T20:32:43.623Z,173.20
2023-03-01T20:35:11.577Z,174.07
2023-03-01T20:37:38.956Z,191.40
2023-03-01T20:40:08.411Z,194.10
2023-03-01T20:42:35.683Z,204.00
2023-03-01T20:45:03.178Z,216.20
2023-03-01T20:47:30.360Z,235.97
2023-03-01T20:50:01.338Z,239.03
2023-03-01T20:52:34.191Z,233.33
2023-03-01T20:55:04.069Z,223.97
2023-03-01T20:57:32.111Z,213.23
2023-03-01T20:59:59.383Z,208.17
2023-03-01T21:02:26.624Z,211.07
2023-03-01T21:04:53.854Z,212.00
2023-03-01T21:07:21.198Z,202.07
2023-03-01T21:09:48.576Z,198.93
2023-03-01T21:12:16.065Z,204.53
2023-03-01T21:14:43.431Z,205.83
2023-03-01T21:17:11.516Z,209.27
2023-03-01T21:19:45.593Z,218.67
2023-03-01T21:22:16.334Z,210.53
2023-03-01T21:24:43.677Z,217.13
2023-03-01T21:27:11.435Z,207.60
2023-03-01T21:29:39.848Z,202.00
2023-03-01T21:32:07.760Z,210.53
2023-03-01T21:34:35.489Z,202.27
2023-03-01T21:37:02.702Z,212.67
2023-03-01T21:39:30.443Z,211.73
2023-03-01T21:41:58.672Z,218.57
2023-03-01T21:44:26.875Z,215.83
2023-03-01T21:46:54.709Z,210.00
2023-03-01T21:49:22.402Z,219.87
2023-03-01T21:51:49.851Z,224.67
2023-03-01T21:54:17.786Z,226.40
2023-03-01T21:56:45.337Z,217.60
2023-03-01T21:59:15.505Z,217.00
2023-03-01T22:01:42.721Z,215.17
2023-03-01T22:04:10.356Z,211.53
2023-03-01T22:06:40.881Z,206.07
2023-03-01T22:09:09.938Z,202.60
2023-03-01T22:11:39.466Z,187.53
2023-03-01T22:14:07.675Z,193.07
2023-03-01T22:16:36.285Z,183.43
2023-03-01T22:19:04.592Z,190.43
2023-03-01T22:21:31.802Z,190.17
2023-03-01T22:23:59.806Z,179.23
2023-03-01T22:26:34.926Z,187.93
2023-03-01T22:29:03.297Z,180.90
2023-03-01T22:31:30.577Z,178.17
2023-03-01T22:33:58.460Z,172.83
2023-03-01T22:36:25.766Z,166.90
2023-03-01T22:38:59.359Z,165.70
2023-03-01T22:41:34.645Z,164.03
2023-03-01T22:44:01.889Z,170.43
2023-03-01T22:46:29.292Z,171.00
2023-03-01T22:48:56.952Z,172.23
2023-03-01T22:51:29.417Z,180.00
2023-03-01T22:53:57.406Z,174.57
2023-03-01T22:56:25.835Z,177.83
2023-03-01T22:58:53.543Z,175.97
2023-03-01T23:01:22.839Z,173.20
2023-03-01T23:03:50.445Z,161.67
2023-03-01T23:06:18.321Z,157.30
2023-03-01T23:08:49.256Z,146.23
2023-03-01T23:11:17.517Z,135.40
2023-03-01T23:13:44.901Z,123.67
2023-03-01T23:16:12.614Z,122.53
2023-03-01T23:18:40.141Z,115.33
2023-03-01T23:21:15.340Z,117.70
2023-03-01T23:23:42.990Z,112.57
2023-03-01T23:26:10.518Z,114.67
2023-03-01T23:28:41.287Z,113.90
2023-03-01T23:31:16.457Z,115.73
2023-03-01T23:33:45.245Z,119.13
2023-03-01T23:36:15.624Z,111.90
2023-03-01T23:38:43.249Z,104.50
2023-03-01T23:41:11.178Z,99.03
2023-03-01T23:43:38.384Z,95.70
2023-03-01T23:46:06.025Z,92.27
2023-03-01T23:48:34.223Z,89.97
2023-03-01T23:51:05.792Z,90.60
2023-03-01T23:53:35.048Z,91.60
2023-03-01T23:56:02.696Z,98.63
2023-03-01T23:58:30.068Z,103.73
